Lexington, Illinois
Current Conditions -  °F | °C
As of 11:56 PM on Tuesday 25 Nov 2014 (Local Time) from KBMI Reporting Station
Clear Clear  
Wind Chill: -10°   Ceiling: Unl
Heat Index: -6°   Visibility: 10mi
Dew Point: -7°   Wind: 6mph
Humidity: 96%   Direction: 160°SSE
Pressure: 30.17"   Gusts: NA
Location:  40.64°N, 88.78°W
Report Text: KBMI 260556Z AUTO 16005KT 10SM CLR M06/M07 A3017 RMK AO2 58008 T10611066 11033 21066 410111066 SLP238
Loading
Personal Weather Stations






























Interactive Weather Map New forecast layout! Learn more

10-Day Weather Forecast

Advertisements
Track Severe Weather on mobile